Time;durP1;ratioP1;P1;durP2;ratioP2;P2;SDS_P1;SDS_P2;PMS_P1;PMS_P2;Temp;Humidity;BMP_temperature;BMP_pressure;BME280_temperature;BME280_humidity;BME280_pressure;Samples;Min_cycle;Max_cycle;Signal;HPM_P1;HPM_P2
2021/11/20 00:01:28;;;;;;;10.33;9.40;;;8.50;99.90;;;;;;6298486;28;20559;-68
2021/11/20 00:04:31;;;;;;;11.40;9.73;;;8.50;99.90;;;;;;6297645;28;20474;-68
2021/11/20 00:07:35;;;;;;;10.80;9.40;;;8.50;99.90;;;;;;6296640;28;21039;-68
2021/11/20 00:10:42;;;;;;;10.87;9.77;;;8.50;99.90;;;;;;6279126;28;20470;-67
2021/11/20 00:13:48;;;;;;;11.30;9.00;;;8.50;99.90;;;;;;6273590;28;20906;-66
2021/11/20 00:16:53;;;;;;;10.23;8.70;;;8.60;99.90;;;;;;6274418;28;20804;-67
2021/11/20 00:19:56;;;;;;;10.70;8.23;;;8.60;99.90;;;;;;6273389;28;20470;-67
2021/11/20 00:23:00;;;;;;;8.60;7.13;;;8.60;99.90;;;;;;6272906;28;20470;-67
2021/11/20 00:26:06;;;;;;;11.07;8.17;;;8.60;99.90;;;;;;6273109;28;20535;-68
2021/11/20 00:29:25;;;;;;;9.00;8.10;;;8.60;99.90;;;;;;6273336;28;20504;-67
2021/11/20 00:32:32;;;;;;;8.97;8.07;;;8.60;99.90;;;;;;6283074;28;20477;-67
2021/11/20 00:35:37;;;;;;;8.73;7.80;;;8.50;99.90;;;;;;6298194;28;20522;-67
2021/11/20 00:38:42;;;;;;;9.37;8.30;;;8.50;99.90;;;;;;6297991;28;21344;-65
2021/11/20 00:41:47;;;;;;;10.17;8.77;;;8.50;99.90;;;;;;6297924;28;20457;-66
2021/11/20 00:44:50;;;;;;;13.17;10.60;;;8.40;99.90;;;;;;6299793;28;21002;-67
2021/11/20 00:47:53;;;;;;;11.40;9.13;;;8.40;99.90;;;;;;6302093;28;20477;-67
2021/11/20 00:50:59;;;;;;;12.53;11.07;;;8.40;99.90;;;;;;6302401;28;20475;-67
2021/11/20 00:54:03;;;;;;;9.37;7.77;;;8.30;99.90;;;;;;6302179;28;20469;-67
2021/11/20 00:57:09;;;;;;;9.13;7.20;;;8.30;99.90;;;;;;6288151;28;20476;-67
2021/11/20 01:00:15;;;;;;;11.20;7.37;;;8.30;99.90;;;;;;6302699;28;20473;-67
2021/11/20 01:03:18;;;;;;;9.50;6.80;;;8.20;99.90;;;;;;6303554;28;20468;-66
2021/11/20 01:06:22;;;;;;;8.93;7.17;;;8.20;99.90;;;;;;6303195;28;20480;-67
2021/11/20 01:09:28;;;;;;;8.40;6.30;;;8.10;99.90;;;;;;6303469;28;20469;-67
2021/11/20 01:12:33;;;;;;;7.23;6.23;;;8.00;99.90;;;;;;6303540;28;20474;-67
2021/11/20 01:15:40;;;;;;;7.10;5.63;;;7.90;99.90;;;;;;6303532;28;20485;-67
2021/11/20 01:18:43;;;;;;;6.30;5.70;;;7.90;99.90;;;;;;6303428;28;20468;-67
2021/11/20 01:21:49;;;;;;;7.70;6.77;;;7.90;99.90;;;;;;6303682;28;20483;-67
2021/11/20 01:24:54;;;;;;;9.73;8.40;;;7.90;99.90;;;;;;6303813;28;20469;-67
2021/11/20 01:27:58;;;;;;;8.33;6.93;;;7.90;99.90;;;;;;6302910;28;20469;-67
2021/11/20 01:31:04;;;;;;;5.90;5.10;;;7.80;99.90;;;;;;6303293;28;20461;-67
2021/11/20 01:34:09;;;;;;;6.57;5.77;;;7.80;99.90;;;;;;6303005;28;20518;-67
2021/11/20 01:37:15;;;;;;;11.40;6.30;;;7.70;99.90;;;;;;6302781;28;20582;-67
2021/11/20 01:40:21;;;;;;;5.30;4.60;;;7.70;99.90;;;;;;6303229;28;20473;-67
2021/11/20 01:43:26;;;;;;;4.43;3.73;;;7.70;99.90;;;;;;6302866;28;20968;-67
2021/11/20 01:46:31;;;;;;;4.40;4.00;;;7.70;99.90;;;;;;6302470;28;20472;-67
2021/11/20 01:49:36;;;;;;;5.43;3.90;;;7.80;99.90;;;;;;6302962;28;20484;-67
2021/11/20 01:52:48;;;;;;;5.17;3.97;;;7.70;99.90;;;;;;6302086;28;20909;-67
2021/11/20 01:55:57;;;;;;;3.50;3.23;;;7.70;99.90;;;;;;6301525;28;20497;-67
2021/11/20 01:59:07;;;;;;;4.50;3.73;;;7.70;99.90;;;;;;6303214;28;20495;-67
2021/11/20 02:02:16;;;;;;;4.50;4.00;;;7.70;99.90;;;;;;6297785;28;20484;-67
2021/11/20 02:05:24;;;;;;;3.87;3.53;;;7.60;99.90;;;;;;6302569;28;20472;-67
2021/11/20 02:08:32;;;;;;;4.00;3.60;;;7.60;99.90;;;;;;6302615;28;20450;-68
2021/11/20 02:11:41;;;;;;;4.40;3.93;;;7.60;99.90;;;;;;6302509;28;20433;-67
2021/11/20 02:14:46;;;;;;;4.30;3.90;;;7.60;99.90;;;;;;6302798;28;20462;-67
2021/11/20 02:17:52;;;;;;;5.63;4.67;;;7.60;99.90;;;;;;6302398;28;20472;-67
2021/11/20 02:21:00;;;;;;;4.77;3.90;;;7.60;99.90;;;;;;6302490;28;20476;-66
2021/11/20 02:24:02;;;;;;;4.80;4.40;;;7.60;99.90;;;;;;6301531;28;20842;-66
2021/11/20 02:27:09;;;;;;;4.37;3.87;;;7.50;99.90;;;;;;6301817;28;20972;-67
2021/11/20 02:30:19;;;;;;;5.23;4.73;;;7.60;99.90;;;;;;6302587;28;20470;-67
2021/11/20 02:33:24;;;;;;;6.73;5.83;;;7.60;99.90;;;;;;6302039;28;20473;-66
2021/11/20 02:36:28;;;;;;;6.63;5.53;;;7.70;99.90;;;;;;6301606;28;20484;-67
2021/11/20 02:39:32;;;;;;;8.07;6.33;;;7.60;99.90;;;;;;6302226;28;20473;-67
2021/11/20 02:42:37;;;;;;;6.63;5.50;;;7.60;99.90;;;;;;6301557;28;20465;-67
2021/11/20 02:45:43;;;;;;;7.33;5.70;;;7.60;99.90;;;;;;6301264;28;20496;-67
2021/11/20 02:48:47;;;;;;;5.37;4.80;;;7.50;99.90;;;;;;6301378;28;20523;-67
2021/11/20 02:51:54;;;;;;;6.50;5.87;;;7.50;99.90;;;;;;6301373;28;20476;-67
2021/11/20 02:54:58;;;;;;;5.77;5.00;;;7.50;99.90;;;;;;6301283;28;20473;-67
2021/11/20 02:58:02;;;;;;;7.87;6.23;;;7.60;99.90;;;;;;6301510;28;20469;-67
2021/11/20 03:01:11;;;;;;;8.13;7.33;;;7.50;99.90;;;;;;6301040;28;20473;-67
2021/11/20 03:04:17;;;;;;;8.20;6.73;;;7.60;99.90;;;;;;6296501;28;20477;-67
2021/11/20 03:07:20;;;;;;;9.13;6.63;;;7.60;99.90;;;;;;6300844;28;20473;-67
2021/11/20 03:10:23;;;;;;;8.47;6.60;;;7.60;99.90;;;;;;6300734;28;20473;-67
2021/11/20 03:13:27;;;;;;;7.00;6.30;;;7.60;99.90;;;;;;6300839;28;20477;-67
2021/11/20 03:16:33;;;;;;;7.67;6.20;;;7.60;99.90;;;;;;6300215;28;20484;-67
2021/11/20 03:19:39;;;;;;;7.03;6.00;;;7.50;99.90;;;;;;6301171;28;20790;-66
2021/11/20 03:22:46;;;;;;;8.03;7.23;;;7.60;99.90;;;;;;6300290;28;20969;-67
2021/11/20 03:25:49;;;;;;;7.10;6.40;;;7.50;99.90;;;;;;6300400;28;20791;-67
2021/11/20 03:28:52;;;;;;;10.20;7.20;;;7.50;99.90;;;;;;6300361;28;20489;-67
2021/11/20 03:31:57;;;;;;;10.60;7.20;;;7.40;99.90;;;;;;6300877;28;20465;-67
2021/11/20 03:35:02;;;;;;;9.23;8.33;;;7.50;99.90;;;;;;6300143;28;20968;-67
2021/11/20 03:38:05;;;;;;;12.37;10.50;;;7.40;99.90;;;;;;6300606;28;20477;-67
2021/11/20 03:41:09;;;;;;;18.50;13.40;;;7.40;99.90;;;;;;6301217;28;20499;-67
2021/11/20 03:44:13;;;;;;;18.97;15.27;;;7.40;99.90;;;;;;6300362;28;20465;-67
2021/11/20 03:47:17;;;;;;;19.50;14.13;;;7.40;99.90;;;;;;6300312;28;20479;-67
2021/11/20 03:50:21;;;;;;;13.97;12.57;;;7.30;99.90;;;;;;6300934;28;20552;-67
2021/11/20 03:53:24;;;;;;;14.47;12.97;;;7.20;99.90;;;;;;6299911;28;20894;-67
2021/11/20 03:56:28;;;;;;;12.80;11.13;;;7.20;99.90;;;;;;6300215;28;20970;-67
2021/11/20 03:59:32;;;;;;;14.27;12.17;;;7.20;99.90;;;;;;6300217;28;20452;-67
2021/11/20 04:02:37;;;;;;;14.80;12.03;;;7.10;99.90;;;;;;6299593;28;20877;-67
2021/11/20 04:05:40;;;;;;;13.93;12.43;;;7.20;99.90;;;;;;6300273;28;20462;-68
2021/11/20 04:08:45;;;;;;;11.60;10.47;;;7.20;99.90;;;;;;6285262;28;20892;-67
2021/11/20 04:11:50;;;;;;;13.80;10.50;;;7.10;99.90;;;;;;6299830;28;20779;-66
2021/11/20 04:14:53;;;;;;;11.57;8.53;;;7.00;99.90;;;;;;6300158;28;20469;-67
2021/11/20 04:17:57;;;;;;;10.10;9.10;;;7.00;99.90;;;;;;6299615;28;20469;-66
2021/11/20 04:21:01;;;;;;;10.50;9.40;;;7.00;99.90;;;;;;6303855;28;20479;-66
2021/11/20 04:24:05;;;;;;;10.80;9.23;;;6.90;99.90;;;;;;6305032;28;20480;-66
2021/11/20 04:27:09;;;;;;;11.77;9.53;;;7.00;99.90;;;;;;6304429;28;20965;-67
2021/11/20 04:30:15;;;;;;;10.77;9.53;;;7.00;99.90;;;;;;6304937;28;20476;-67
2021/11/20 04:33:19;;;;;;;11.87;9.50;;;7.00;99.90;;;;;;6304442;28;20469;-67
2021/11/20 04:36:23;;;;;;;9.73;8.50;;;7.00;99.90;;;;;;6304115;28;20476;-67
2021/11/20 04:39:27;;;;;;;10.70;8.13;;;6.90;99.90;;;;;;6304417;28;20473;-67
2021/11/20 04:42:30;;;;;;;11.97;9.03;;;6.90;99.90;;;;;;6304705;28;20483;-67
2021/11/20 04:45:35;;;;;;;9.23;8.33;;;6.90;99.90;;;;;;6304240;28;20488;-67
2021/11/20 04:48:39;;;;;;;10.50;9.50;;;6.90;99.90;;;;;;6304613;28;20484;-67
2021/11/20 04:51:43;;;;;;;11.50;9.43;;;6.80;99.90;;;;;;6304296;28;20473;-67
2021/11/20 04:54:46;;;;;;;11.70;9.63;;;6.80;99.90;;;;;;6303971;28;20481;-66
2021/11/20 04:58:04;;;;;;;12.97;9.73;;;6.80;99.90;;;;;;6303833;28;20469;-66
2021/11/20 05:01:08;;;;;;;12.10;10.00;;;6.80;99.90;;;;;;6303889;28;20476;-67
2021/11/20 05:04:13;;;;;;;11.93;10.03;;;6.80;99.90;;;;;;6303668;28;20468;-67
2021/11/20 05:07:16;;;;;;;11.83;9.00;;;6.80;99.90;;;;;;6303103;28;20480;-66
2021/11/20 05:10:19;;;;;;;12.30;10.20;;;6.80;99.90;;;;;;6303517;28;20484;-67
2021/11/20 05:13:26;;;;;;;12.93;11.00;;;6.70;99.90;;;;;;6292496;28;21120;-67
2021/11/20 05:16:29;;;;;;;11.80;10.33;;;6.70;99.90;;;;;;6303275;28;20473;-65
2021/11/20 05:19:36;;;;;;;13.80;10.33;;;6.70;99.90;;;;;;6303376;28;20493;-66
2021/11/20 05:22:39;;;;;;;11.57;10.30;;;6.70;99.90;;;;;;6303655;28;20461;-66
2021/11/20 05:25:43;;;;;;;12.60;9.70;;;6.60;99.90;;;;;;6303209;28;20594;-65
2021/11/20 05:28:52;;;;;;;14.03;10.20;;;6.60;99.90;;;;;;6303807;28;20465;-65
2021/11/20 05:31:55;;;;;;;15.37;10.37;;;6.60;99.90;;;;;;6302924;28;20481;-65
2021/11/20 05:35:01;;;;;;;17.13;10.60;;;6.60;99.90;;;;;;6303608;28;20530;-66
2021/11/20 05:38:04;;;;;;;12.27;10.50;;;6.60;99.90;;;;;;6303798;28;20489;-66
2021/11/20 05:41:08;;;;;;;15.07;10.10;;;6.60;99.90;;;;;;6302997;28;20472;-66
2021/11/20 05:44:12;;;;;;;10.90;9.80;;;6.60;99.90;;;;;;6303233;28;20479;-66
2021/11/20 05:47:17;;;;;;;13.37;10.20;;;6.50;99.90;;;;;;6302191;28;20988;-66
2021/11/20 05:50:24;;;;;;;14.27;11.47;;;6.50;99.90;;;;;;6302952;28;20926;-66
2021/11/20 05:53:27;;;;;;;14.17;9.97;;;6.50;99.90;;;;;;6303109;28;20767;-66
2021/11/20 05:56:31;;;;;;;15.93;10.33;;;6.50;99.90;;;;;;6302554;28;20956;-65
2021/11/20 05:59:54;;;;;;;22.60;13.87;;;6.40;99.90;;;;;;6302523;28;20571;-65
2021/11/20 06:02:59;;;;;;;15.90;12.70;;;6.40;99.90;;;;;;6301364;28;20465;-66
2021/11/20 06:06:05;;;;;;;19.00;13.47;;;6.30;99.90;;;;;;6302615;28;20941;-66
2021/11/20 06:09:08;;;;;;;15.60;12.33;;;6.30;99.90;;;;;;6302004;28;20820;-66
2021/11/20 06:12:13;;;;;;;13.60;11.73;;;6.20;99.90;;;;;;6302372;28;20475;-66
2021/11/20 06:15:16;;;;;;;13.07;11.40;;;6.20;99.90;;;;;;6297538;28;20933;-67
2021/11/20 06:18:19;;;;;;;15.80;11.90;;;6.20;99.90;;;;;;6302324;28;20476;-67
2021/11/20 06:21:23;;;;;;;13.70;11.80;;;6.10;99.90;;;;;;6302383;28;20484;-68
2021/11/20 06:24:28;;;;;;;14.77;12.10;;;6.20;99.90;;;;;;6301541;28;20480;-67
2021/11/20 06:27:31;;;;;;;14.57;11.07;;;6.30;99.90;;;;;;6302118;28;20487;-67
2021/11/20 06:30:35;;;;;;;15.53;11.80;;;6.30;99.90;;;;;;6301566;28;20461;-67
2021/11/20 06:33:38;;;;;;;16.60;13.67;;;6.30;99.90;;;;;;6301868;28;20470;-67
2021/11/20 06:36:43;;;;;;;15.87;11.87;;;6.40;99.90;;;;;;6301361;28;20546;-67
2021/11/20 06:39:46;;;;;;;16.57;12.17;;;6.40;99.90;;;;;;6302383;28;20472;-67
2021/11/20 06:42:50;;;;;;;15.07;12.40;;;6.40;99.90;;;;;;6300654;28;20972;-66
2021/11/20 06:45:56;;;;;;;18.43;13.63;;;6.40;99.90;;;;;;6301589;28;20461;-66
2021/11/20 06:48:59;;;;;;;15.83;12.87;;;6.40;99.90;;;;;;6301182;28;21093;-67
2021/11/20 06:52:04;;;;;;;16.60;12.30;;;6.50;99.90;;;;;;6301240;28;20847;-67
2021/11/20 06:55:09;;;;;;;15.90;13.50;;;6.60;99.90;;;;;;6301646;28;20582;-66
2021/11/20 06:58:32;;;;;;;21.10;18.50;;;6.60;99.90;;;;;;6300820;28;20476;-66
2021/11/20 07:01:36;;;;;;;23.60;18.00;;;6.70;99.90;;;;;;6300717;28;20816;-67
2021/11/20 07:04:44;;;;;;;23.07;18.33;;;6.70;99.90;;;;;;6300973;28;20469;-67
2021/11/20 07:07:49;;;;;;;19.83;17.73;;;6.70;99.90;;;;;;6301406;28;20473;-67
2021/11/20 07:10:53;;;;;;;22.67;16.43;;;6.80;99.90;;;;;;6301045;28;20473;-66
2021/11/20 07:13:57;;;;;;;19.47;15.57;;;6.80;99.90;;;;;;6300939;28;20782;-66
2021/11/20 07:17:00;;;;;;;16.57;14.87;;;6.90;99.90;;;;;;6300503;28;20789;-66
2021/11/20 07:20:06;;;;;;;15.93;14.20;;;6.90;99.90;;;;;;6300277;28;20469;-66
2021/11/20 07:23:11;;;;;;;17.00;13.80;;;6.90;99.90;;;;;;6295745;28;20516;-66
2021/11/20 07:26:15;;;;;;;21.70;13.70;;;7.00;99.90;;;;;;6300195;28;20480;-67
2021/11/20 07:29:18;;;;;;;17.03;13.40;;;7.10;99.90;;;;;;6300087;28;20477;-67
2021/11/20 07:32:21;;;;;;;23.47;15.27;;;7.20;99.90;;;;;;6300946;28;20977;-67
2021/11/20 07:35:32;;;;;;;16.17;14.50;;;7.20;99.90;;;;;;6300545;28;20478;-67
2021/11/20 07:38:39;;;;;;;18.40;14.60;;;7.30;99.90;;;;;;6300946;28;20485;-67
2021/11/20 07:41:42;;;;;;;18.40;14.40;;;7.40;99.90;;;;;;6302255;28;20433;-68
2021/11/20 07:44:46;;;;;;;18.50;14.97;;;7.40;99.90;;;;;;6300623;28;20469;-68
2021/11/20 07:47:49;;;;;;;18.83;14.17;;;7.50;99.90;;;;;;6302317;28;20818;-68
2021/11/20 07:50:54;;;;;;;19.47;14.90;;;7.60;99.90;;;;;;6320543;28;20571;-68
2021/11/20 07:53:59;;;;;;;17.23;15.07;;;7.70;99.90;;;;;;6313116;28;20479;-68
2021/11/20 07:57:02;;;;;;;19.40;14.73;;;7.80;99.90;;;;;;6309906;28;20476;-67
2021/11/20 08:00:10;;;;;;;18.67;15.93;;;7.90;99.90;;;;;;6309538;28;20472;-67
2021/11/20 08:03:13;;;;;;;18.63;15.70;;;8.00;99.90;;;;;;6321787;28;20791;-67
2021/11/20 08:06:17;;;;;;;19.33;15.33;;;8.10;99.90;;;;;;6325297;28;20809;-69
2021/11/20 08:09:22;;;;;;;17.70;15.00;;;8.20;99.90;;;;;;6324687;28;20476;-67
2021/11/20 08:12:25;;;;;;;17.50;15.47;;;8.20;99.90;;;;;;6325159;28;20464;-67
2021/11/20 08:15:30;;;;;;;21.87;16.23;;;8.40;99.90;;;;;;6324784;28;20491;-69
2021/11/20 08:18:33;;;;;;;17.80;14.73;;;8.50;99.90;;;;;;6325299;28;20967;-68
2021/11/20 08:21:36;;;;;;;23.13;16.10;;;8.60;99.90;;;;;;6324576;28;20464;-67
2021/11/20 08:24:41;;;;;;;20.20;15.20;;;8.60;99.90;;;;;;6314961;28;20777;-68
2021/11/20 08:27:46;;;;;;;21.50;16.90;;;8.70;99.90;;;;;;6324814;28;20484;-68
2021/11/20 08:30:49;;;;;;;22.03;18.10;;;8.80;99.90;;;;;;6324974;28;20468;-67
2021/11/20 08:33:52;;;;;;;17.03;15.30;;;9.00;99.90;;;;;;6324359;28;20472;-67
2021/11/20 08:36:55;;;;;;;20.80;18.60;;;9.10;99.90;;;;;;6323776;28;20537;-68
2021/11/20 08:40:03;;;;;;;21.40;17.23;;;9.30;99.90;;;;;;6324597;28;20473;-68
2021/11/20 08:43:07;;;;;;;20.93;17.57;;;9.30;99.90;;;;;;6324551;28;20487;-68
2021/11/20 08:46:10;;;;;;;18.87;16.50;;;9.40;99.90;;;;;;6324187;28;20987;-68
2021/11/20 08:49:15;;;;;;;19.40;16.80;;;9.50;99.90;;;;;;6324420;28;20622;-68
2021/11/20 08:52:18;;;;;;;19.20;16.40;;;9.40;99.90;;;;;;6324954;28;20472;-68
2021/11/20 08:55:23;;;;;;;19.20;16.37;;;9.60;99.90;;;;;;6324788;28;20472;-67
2021/11/20 08:58:27;;;;;;;18.97;14.50;;;9.70;99.90;;;;;;6324761;28;20472;-68
2021/11/20 09:01:33;;;;;;;19.30;16.27;;;9.80;99.90;;;;;;6324339;28;20472;-68
2021/11/20 09:04:43;;;;;;;18.17;14.90;;;9.80;99.90;;;;;;6307844;28;20472;-68
2021/11/20 09:07:50;;;;;;;19.90;15.50;;;9.80;99.90;;;;;;6302781;28;20804;-68
2021/11/20 09:11:01;;;;;;;19.17;15.53;;;10.00;99.90;;;;;;6302933;28;20829;-68
2021/11/20 09:14:11;;;;;;;21.87;16.57;;;10.10;99.90;;;;;;6305763;28;20807;-67
2021/11/20 09:17:15;;;;;;;24.23;16.67;;;10.20;99.90;;;;;;6304489;28;20484;-67
2021/11/20 09:20:19;;;;;;;20.77;17.97;;;10.30;99.90;;;;;;6303716;28;20468;-67
2021/11/20 09:23:23;;;;;;;22.37;16.80;;;10.30;99.90;;;;;;6304482;28;20473;-68
2021/11/20 09:26:47;;;;;;;20.20;16.13;;;10.40;99.90;;;;;;6299467;28;20950;-68
2021/11/20 09:29:51;;;;;;;17.00;15.30;;;10.40;99.90;;;;;;6303563;28;20469;-69
2021/11/20 09:32:54;;;;;;;16.33;13.70;;;10.40;99.90;;;;;;6302531;28;20960;-70
2021/11/20 09:36:01;;;;;;;18.90;14.70;;;10.50;99.90;;;;;;6299245;28;20476;-68
2021/11/20 09:39:05;;;;;;;16.83;13.93;;;10.40;99.90;;;;;;6301332;28;20487;-68
2021/11/20 09:42:33;;;;;;;18.53;15.17;;;10.40;99.90;;;;;;6302865;28;20473;-68
2021/11/20 09:45:39;;;;;;;18.30;14.67;;;10.60;99.90;;;;;;6299716;28;20477;-68
2021/11/20 09:48:45;;;;;;;18.80;16.27;;;10.70;99.90;;;;;;6299821;28;20557;-69
2021/11/20 09:51:56;;;;;;;17.10;15.27;;;10.80;99.90;;;;;;6299861;28;20492;-68
2021/11/20 09:55:00;;;;;;;21.03;16.00;;;10.90;99.90;;;;;;6300210;28;20477;-68
2021/11/20 09:58:09;;;;;;;20.70;16.77;;;11.00;99.90;;;;;;6302534;28;20476;-68
2021/11/20 10:01:23;;;;;;;19.43;16.47;;;11.10;99.90;;;;;;6302645;28;20469;-68
2021/11/20 10:04:31;;;;;;;19.53;16.40;;;11.20;99.90;;;;;;6303039;28;20647;-68
2021/11/20 10:07:38;;;;;;;18.23;16.03;;;11.40;99.90;;;;;;6302695;28;20469;-68
2021/11/20 10:10:44;;;;;;;18.27;15.50;;;11.70;99.90;;;;;;6302398;28;20473;-68
2021/11/20 10:13:53;;;;;;;15.30;13.63;;;12.50;99.10;;;;;;6302681;28;20469;-68
2021/11/20 10:17:01;;;;;;;15.50;13.90;;;14.60;97.10;;;;;;6300777;28;20481;-68
2021/11/20 10:20:28;;;;;;;17.40;14.23;;;17.30;91.60;;;;;;6301981;28;20484;-69
2021/11/20 10:23:43;;;;;;;15.03;13.60;;;21.20;78.40;;;;;;6302275;28;20465;-68
2021/11/20 10:27:13;;;;;;;16.90;15.30;;;22.10;61.10;;;;;;6302033;28;20231;-67
2021/11/20 10:30:26;;;;;;;17.07;15.47;;;20.40;62.60;;;;;;6300223;28;21472;-68
2021/11/20 10:33:33;;;;;;;17.70;16.07;;;18.90;66.30;;;;;;6295472;28;20675;-69
2021/11/20 10:36:41;;;;;;;18.43;15.40;;;17.20;70.80;;;;;;6298403;28;20550;-68
2021/11/20 10:39:46;;;;;;;17.30;15.43;;;16.30;74.30;;;;;;6302818;28;20503;-68
2021/11/20 10:42:55;;;;;;;15.83;14.13;;;17.30;76.40;;;;;;6300083;28;20480;-68
2021/11/20 10:46:23;;;;;;;18.07;16.00;;;21.10;67.30;;;;;;6299823;28;20473;-68
2021/11/20 10:49:48;;;;;;;16.63;15.03;;;24.00;56.40;;;;;;6295286;28;20740;-69
2021/11/20 10:53:24;;;;;;;17.30;15.40;;;24.10;52.20;;;;;;6298822;28;20284;-68
2021/11/20 10:56:35;;;;;;;17.37;15.20;;;26.20;49.40;;;;;;6298001;28;20223;-70
2021/11/20 11:00:07;;;;;;;16.33;14.90;;;28.80;43.00;;;;;;6298124;28;20571;-69
2021/11/20 11:03:33;;;;;;;16.80;15.40;;;31.20;38.10;;;;;;6300287;28;20356;-68
2021/11/20 11:06:54;;;;;;;18.08;16.48;;;32.60;33.60;;;;;;6295818;28;20233;-68
2021/11/20 11:10:01;;;;;;;16.85;15.55;;;34.00;30.90;;;;;;6296271;28;20214;-68
2021/11/20 11:13:10;;;;;;;17.40;16.00;;;35.20;28.80;;;;;;6298937;28;20223;-69
2021/11/20 11:16:20;;;;;;;16.23;14.95;;;35.50;27.60;;;;;;6299038;28;20257;-68
2021/11/20 11:19:37;;;;;;;16.50;15.20;;;36.00;26.40;;;;;;6300479;28;20244;-68
2021/11/20 11:22:45;;;;;;;17.20;15.80;;;35.90;26.80;;;;;;6300601;28;20238;-68
2021/11/20 11:25:53;;;;;;;16.95;15.43;;;37.30;25.90;;;;;;6299238;28;20235;-68
2021/11/20 11:28:58;;;;;;;16.50;15.10;;;37.50;24.70;;;;;;6298543;28;20287;-68
2021/11/20 11:32:02;;;;;;;15.40;14.20;;;38.00;24.40;;;;;;6299179;28;20696;-68
2021/11/20 11:35:15;;;;;;;16.08;14.75;;;37.80;24.30;;;;;;6300365;28;20253;-68
2021/11/20 11:38:42;;;;;;;15.18;13.95;;;38.20;23.60;;;;;;6290888;28;20261;-68
2021/11/20 11:41:54;;;;;;;15.23;14.02;;;38.70;23.50;;;;;;6300408;28;20243;-70
2021/11/20 11:45:07;;;;;;;15.07;13.88;;;39.50;22.70;;;;;;6300891;28;20233;-68
2021/11/20 11:48:35;;;;;;;14.95;13.75;;;39.90;22.30;;;;;;6301505;28;20256;-69
2021/11/20 11:52:01;;;;;;;12.60;11.57;;;40.30;22.10;;;;;;6299291;28;20246;-69
2021/11/20 11:55:25;;;;;;;15.65;14.38;;;41.00;21.60;;;;;;6298659;28;20707;-69
2021/11/20 11:58:58;;;;;;;13.35;12.15;;;41.50;21.00;;;;;;6291993;28;20609;-69
2021/11/20 12:02:13;;;;;;;14.38;13.32;;;39.70;21.60;;;;;;6300163;28;20253;-69
2021/11/20 12:05:42;;;;;;;13.15;12.07;;;39.90;21.80;;;;;;6301415;28;20230;-68
2021/11/20 12:08:50;;;;;;;13.15;12.15;;;38.80;21.90;;;;;;6293552;28;20252;-68
2021/11/20 12:11:54;;;;;;;13.55;12.50;;;38.10;22.60;;;;;;6300889;28;20232;-70
2021/11/20 12:15:10;;;;;;;13.30;12.30;;;37.70;22.60;;;;;;6300368;28;20234;-69
2021/11/20 12:18:21;;;;;;;13.18;12.18;;;38.50;22.60;;;;;;6299120;28;20248;-69
2021/11/20 12:21:31;;;;;;;12.90;11.90;;;38.60;22.40;;;;;;6299975;28;20248;-69
2021/11/20 12:24:47;;;;;;;12.40;11.45;;;38.60;22.10;;;;;;6300025;28;20237;-69
2021/11/20 12:27:55;;;;;;;11.63;10.63;;;37.30;22.90;;;;;;6299677;28;20248;-69
2021/11/20 12:31:18;;;;;;;11.98;10.90;;;38.00;22.80;;;;;;6300190;28;20580;-69
2021/11/20 12:34:40;;;;;;;12.63;11.65;;;38.40;22.20;;;;;;6299809;28;20238;-69
2021/11/20 12:38:10;;;;;;;12.40;11.35;;;38.20;22.30;;;;;;6298883;28;20546;-69
2021/11/20 12:41:30;;;;;;;13.52;11.98;;;37.30;22.70;;;;;;6297240;28;20233;-69
2021/11/20 12:44:56;;;;;;;11.55;10.55;;;37.10;23.00;;;;;;6304391;28;20623;-70
2021/11/20 12:48:12;;;;;;;12.32;11.43;;;36.70;23.50;;;;;;6305189;28;20244;-69
2021/11/20 12:51:28;;;;;;;12.07;11.07;;;37.20;23.00;;;;;;6305070;28;20238;-68
2021/11/20 12:55:01;;;;;;;11.45;10.55;;;37.50;22.80;;;;;;6302584;28;20701;-69
2021/11/20 12:58:13;;;;;;;13.15;12.05;;;37.50;22.90;;;;;;6300169;28;20246;-68
2021/11/20 13:01:18;;;;;;;13.13;12.02;;;37.60;23.20;;;;;;6318827;28;20229;-69
2021/11/20 13:04:24;;;;;;;12.02;11.13;;;37.50;22.80;;;;;;6327859;28;20713;-69
2021/11/20 13:07:31;;;;;;;12.25;11.20;;;36.80;23.20;;;;;;6328767;28;20236;-68
2021/11/20 13:10:41;;;;;;;10.98;9.98;;;36.50;23.80;;;;;;6327779;28;20231;-69
2021/11/20 13:13:50;;;;;;;10.80;9.77;;;36.30;23.80;;;;;;6329278;28;20227;-69
2021/11/20 13:17:02;;;;;;;11.93;10.80;;;35.90;24.10;;;;;;6328741;28;20659;-69
2021/11/20 13:20:34;;;;;;;11.57;10.57;;;35.00;24.40;;;;;;6328970;28;20253;-69
2021/11/20 13:23:39;;;;;;;12.48;11.23;;;34.80;24.90;;;;;;6327618;28;20285;-69
2021/11/20 13:27:01;;;;;;;11.88;10.88;;;33.90;25.40;;;;;;6306647;28;20227;-69
2021/11/20 13:30:07;;;;;;;11.93;10.90;;;33.10;26.20;;;;;;6329313;28;20524;-70
2021/11/20 13:33:11;;;;;;;13.35;12.15;;;32.80;26.20;;;;;;6328944;28;20229;-69
2021/11/20 13:36:14;;;;;;;11.57;10.50;;;32.30;27.00;;;;;;6328303;28;20568;-69
2021/11/20 13:39:18;;;;;;;11.70;10.70;;;31.40;27.70;;;;;;6329650;28;20689;-69
2021/11/20 13:42:21;;;;;;;12.40;11.30;;;30.90;28.10;;;;;;6321372;28;20256;-69
2021/11/20 13:45:27;;;;;;;12.00;11.10;;;30.50;28.60;;;;;;6331220;28;20244;-69
2021/11/20 13:48:32;;;;;;;12.33;11.30;;;30.00;29.40;;;;;;6330348;28;20279;-68
2021/11/20 13:51:37;;;;;;;10.80;9.90;;;29.60;29.60;;;;;;6330298;28;20230;-68
2021/11/20 13:54:41;;;;;;;12.80;11.60;;;29.00;30.50;;;;;;6329038;28;20233;-68
2021/11/20 13:57:49;;;;;;;12.73;11.63;;;28.60;30.70;;;;;;6327967;28;20685;-69
2021/11/20 14:00:55;;;;;;;13.40;12.30;;;27.70;32.00;;;;;;6328958;28;20240;-67
2021/11/20 14:04:01;;;;;;;13.13;11.77;;;26.40;34.20;;;;;;6328729;28;20248;-68
2021/11/20 14:07:06;;;;;;;13.23;11.83;;;24.80;36.70;;;;;;6328871;28;20240;-69
2021/11/20 14:10:13;;;;;;;13.47;12.27;;;23.50;38.60;;;;;;6328622;28;20241;-68
2021/11/20 14:13:20;;;;;;;13.00;11.90;;;22.20;41.10;;;;;;6327875;28;20230;-68
2021/11/20 14:16:35;;;;;;;13.37;12.07;;;21.20;43.00;;;;;;6328289;28;20233;-68
2021/11/20 14:19:39;;;;;;;13.13;11.83;;;20.10;45.30;;;;;;6328222;28;20226;-68
2021/11/20 14:22:44;;;;;;;13.40;12.10;;;19.20;47.60;;;;;;6327834;28;20232;-68
2021/11/20 14:25:48;;;;;;;13.00;11.70;;;18.40;49.60;;;;;;6327334;28;20230;-68
2021/11/20 14:28:51;;;;;;;11.50;10.40;;;17.40;52.20;;;;;;6328319;28;20479;-68
2021/11/20 14:31:57;;;;;;;12.83;11.60;;;16.90;53.90;;;;;;6327602;28;20481;-68
2021/11/20 14:35:09;;;;;;;14.13;12.63;;;16.60;55.20;;;;;;6327545;28;20962;-68
2021/11/20 14:38:13;;;;;;;17.27;12.00;;;16.00;57.80;;;;;;6327253;28;20472;-69
2021/11/20 14:41:16;;;;;;;14.07;12.37;;;15.70;59.10;;;;;;6332776;28;20468;-68
2021/11/20 14:44:22;;;;;;;14.40;12.87;;;15.50;61.90;;;;;;6327969;28;20490;-68
2021/11/20 14:47:26;;;;;;;15.60;14.00;;;15.20;64.80;;;;;;6322442;28;20496;-68
2021/11/20 14:50:35;;;;;;;14.30;13.00;;;14.90;68.00;;;;;;6326704;28;20452;-68
2021/11/20 14:53:39;;;;;;;15.80;11.97;;;14.50;71.30;;;;;;6326875;28;20441;-68
2021/11/20 14:56:42;;;;;;;13.93;12.60;;;14.20;74.30;;;;;;6327050;28;20456;-68
2021/11/20 14:59:46;;;;;;;14.13;12.70;;;14.20;76.50;;;;;;6326692;28;20491;-68
2021/11/20 15:02:51;;;;;;;14.23;12.80;;;14.00;78.80;;;;;;6325857;28;20467;-68
2021/11/20 15:05:56;;;;;;;13.83;12.53;;;13.80;81.10;;;;;;6326285;28;20928;-68
2021/11/20 15:08:59;;;;;;;15.70;13.60;;;13.70;83.10;;;;;;6326739;28;20479;-67
2021/11/20 15:12:03;;;;;;;16.30;12.93;;;13.60;84.60;;;;;;6326994;28;20460;-68
2021/11/20 15:15:08;;;;;;;13.93;12.20;;;13.50;86.20;;;;;;6325849;28;20468;-68
2021/11/20 15:18:13;;;;;;;16.80;14.30;;;13.40;87.60;;;;;;6326847;28;20464;-69
2021/11/20 15:21:16;;;;;;;14.10;12.60;;;13.30;89.10;;;;;;6325474;28;20468;-68
2021/11/20 15:24:22;;;;;;;14.90;13.40;;;13.20;90.10;;;;;;6325563;28;21177;-69
2021/11/20 15:27:25;;;;;;;15.23;13.60;;;13.10;90.80;;;;;;6325833;28;20987;-69
2021/11/20 15:30:29;;;;;;;17.70;15.80;;;13.00;90.80;;;;;;6325832;28;20807;-68
2021/11/20 15:33:33;;;;;;;19.17;15.03;;;12.90;91.60;;;;;;6325812;28;20482;-68
2021/11/20 15:36:36;;;;;;;14.43;12.97;;;12.70;92.40;;;;;;6325169;28;20926;-68
2021/11/20 15:39:40;;;;;;;18.67;14.90;;;12.70;92.70;;;;;;6325525;28;20485;-69
2021/11/20 15:42:43;;;;;;;15.00;13.37;;;12.60;93.30;;;;;;6325592;28;20475;-68
2021/11/20 15:45:48;;;;;;;16.10;13.10;;;12.50;93.40;;;;;;6324444;28;20468;-68
2021/11/20 15:48:54;;;;;;;17.33;15.57;;;12.40;93.80;;;;;;6320582;28;20472;-69
2021/11/20 15:51:58;;;;;;;17.70;15.73;;;12.30;94.40;;;;;;6325477;28;20486;-68
2021/11/20 15:55:04;;;;;;;16.13;14.47;;;12.30;94.90;;;;;;6325510;28;20468;-69
2021/11/20 15:58:09;;;;;;;17.40;15.03;;;12.20;95.10;;;;;;6328674;28;20479;-69
2021/11/20 16:01:12;;;;;;;17.97;16.17;;;12.20;95.30;;;;;;6330547;28;20481;-68
2021/11/20 16:04:17;;;;;;;17.70;14.20;;;12.10;95.50;;;;;;6326110;28;20468;-68